sensor_id;sensor_type;location;lat;lon;timestamp;P1;durP1;ratioP1;P2;durP2;ratioP2
8088;SDS011;57635;49.194;12.104;2023-04-16T00:00:13;6.10;;;5.73;;
8088;SDS011;57635;49.194;12.104;2023-04-16T00:02:41;6.17;;;5.77;;
8088;SDS011;57635;49.194;12.104;2023-04-16T00:05:10;5.93;;;5.53;;
8088;SDS011;57635;49.194;12.104;2023-04-16T00:07:40;6.90;;;6.40;;
8088;SDS011;57635;49.194;12.104;2023-04-16T00:10:08;6.67;;;6.17;;
8088;SDS011;57635;49.194;12.104;2023-04-16T00:12:44;6.93;;;6.30;;
8088;SDS011;57635;49.194;12.104;2023-04-16T00:15:12;6.47;;;6.07;;
8088;SDS011;57635;49.194;12.104;2023-04-16T00:17:41;5.70;;;5.40;;
8088;SDS011;57635;49.194;12.104;2023-04-16T00:20:11;6.37;;;5.87;;
8088;SDS011;57635;49.194;12.104;2023-04-16T00:22:38;6.27;;;5.77;;
8088;SDS011;57635;49.194;12.104;2023-04-16T00:25:06;6.83;;;6.23;;
8088;SDS011;57635;49.194;12.104;2023-04-16T00:27:34;5.83;;;5.50;;
8088;SDS011;57635;49.194;12.104;2023-04-16T00:30:02;6.00;;;5.63;;
8088;SDS011;57635;49.194;12.104;2023-04-16T00:32:30;6.87;;;6.47;;
8088;SDS011;57635;49.194;12.104;2023-04-16T00:34:57;6.20;;;5.80;;
8088;SDS011;57635;49.194;12.104;2023-04-16T00:37:27;5.73;;;5.33;;
8088;SDS011;57635;49.194;12.104;2023-04-16T00:39:54;6.20;;;5.80;;
8088;SDS011;57635;49.194;12.104;2023-04-16T00:42:22;5.73;;;5.33;;
8088;SDS011;57635;49.194;12.104;2023-04-16T00:44:50;6.23;;;5.73;;
8088;SDS011;57635;49.194;12.104;2023-04-16T00:47:18;6.30;;;5.80;;
8088;SDS011;57635;49.194;12.104;2023-04-16T00:49:47;6.03;;;5.63;;
8088;SDS011;57635;49.194;12.104;2023-04-16T00:52:15;6.10;;;5.70;;
8088;SDS011;57635;49.194;12.104;2023-04-16T00:54:44;6.37;;;5.97;;
8088;SDS011;57635;49.194;12.104;2023-04-16T00:57:12;6.03;;;5.63;;
8088;SDS011;57635;49.194;12.104;2023-04-16T00:59:40;5.70;;;5.30;;
8088;SDS011;57635;49.194;12.104;2023-04-16T01:02:08;6.63;;;6.13;;
8088;SDS011;57635;49.194;12.104;2023-04-16T01:04:36;6.30;;;5.83;;
8088;SDS011;57635;49.194;12.104;2023-04-16T01:07:04;6.00;;;5.50;;
8088;SDS011;57635;49.194;12.104;2023-04-16T01:09:31;6.57;;;6.07;;
8088;SDS011;57635;49.194;12.104;2023-04-16T01:12:00;6.70;;;6.03;;
8088;SDS011;57635;49.194;12.104;2023-04-16T01:14:28;5.63;;;5.23;;
8088;SDS011;57635;49.194;12.104;2023-04-16T01:17:01;5.67;;;5.27;;
8088;SDS011;57635;49.194;12.104;2023-04-16T01:19:29;5.53;;;5.13;;
8088;SDS011;57635;49.194;12.104;2023-04-16T01:21:58;6.30;;;5.90;;
8088;SDS011;57635;49.194;12.104;2023-04-16T01:24:26;6.27;;;5.87;;
8088;SDS011;57635;49.194;12.104;2023-04-16T01:26:53;5.67;;;5.30;;
8088;SDS011;57635;49.194;12.104;2023-04-16T01:29:21;5.83;;;5.43;;
8088;SDS011;57635;49.194;12.104;2023-04-16T01:31:49;5.87;;;5.47;;
8088;SDS011;57635;49.194;12.104;2023-04-16T01:34:17;6.17;;;5.77;;
8088;SDS011;57635;49.194;12.104;2023-04-16T01:36:44;5.67;;;5.30;;
8088;SDS011;57635;49.194;12.104;2023-04-16T01:39:14;6.00;;;5.57;;
8088;SDS011;57635;49.194;12.104;2023-04-16T01:41:42;5.90;;;5.50;;
8088;SDS011;57635;49.194;12.104;2023-04-16T01:44:10;6.60;;;6.10;;
8088;SDS011;57635;49.194;12.104;2023-04-16T01:46:37;6.70;;;6.30;;
8088;SDS011;57635;49.194;12.104;2023-04-16T01:49:05;6.47;;;5.97;;
8088;SDS011;57635;49.194;12.104;2023-04-16T01:51:33;6.63;;;6.13;;
8088;SDS011;57635;49.194;12.104;2023-04-16T01:54:01;6.37;;;5.93;;
8088;SDS011;57635;49.194;12.104;2023-04-16T01:56:30;6.63;;;6.13;;
8088;SDS011;57635;49.194;12.104;2023-04-16T01:58:58;6.17;;;5.77;;
8088;SDS011;57635;49.194;12.104;2023-04-16T02:01:26;6.43;;;6.03;;
8088;SDS011;57635;49.194;12.104;2023-04-16T02:03:54;6.10;;;5.57;;
8088;SDS011;57635;49.194;12.104;2023-04-16T02:06:22;6.27;;;5.67;;
8088;SDS011;57635;49.194;12.104;2023-04-16T02:08:50;6.53;;;6.07;;
8088;SDS011;57635;49.194;12.104;2023-04-16T02:11:17;5.93;;;5.53;;
8088;SDS011;57635;49.194;12.104;2023-04-16T02:13:47;5.70;;;5.30;;
8088;SDS011;57635;49.194;12.104;2023-04-16T02:16:14;6.03;;;5.53;;
8088;SDS011;57635;49.194;12.104;2023-04-16T02:18:42;6.03;;;5.53;;
8088;SDS011;57635;49.194;12.104;2023-04-16T02:21:10;6.23;;;5.83;;
8088;SDS011;57635;49.194;12.104;2023-04-16T02:23:39;5.90;;;5.40;;
8088;SDS011;57635;49.194;12.104;2023-04-16T02:26:07;6.63;;;6.23;;
8088;SDS011;57635;49.194;12.104;2023-04-16T02:28:34;6.47;;;5.97;;
8088;SDS011;57635;49.194;12.104;2023-04-16T02:31:04;6.23;;;5.83;;
8088;SDS011;57635;49.194;12.104;2023-04-16T02:33:32;7.63;;;6.87;;
8088;SDS011;57635;49.194;12.104;2023-04-16T02:36:01;6.93;;;6.43;;
8088;SDS011;57635;49.194;12.104;2023-04-16T02:38:29;6.60;;;6.10;;
8088;SDS011;57635;49.194;12.104;2023-04-16T02:40:56;6.40;;;6.00;;
8088;SDS011;57635;49.194;12.104;2023-04-16T02:43:24;7.27;;;6.67;;
8088;SDS011;57635;49.194;12.104;2023-04-16T02:45:52;7.30;;;6.53;;
8088;SDS011;57635;49.194;12.104;2023-04-16T02:48:22;7.10;;;6.57;;
8088;SDS011;57635;49.194;12.104;2023-04-16T02:50:51;7.00;;;6.50;;
8088;SDS011;57635;49.194;12.104;2023-04-16T02:53:18;7.00;;;6.50;;
8088;SDS011;57635;49.194;12.104;2023-04-16T02:55:49;7.03;;;6.53;;
8088;SDS011;57635;49.194;12.104;2023-04-16T02:58:18;7.10;;;6.50;;
8088;SDS011;57635;49.194;12.104;2023-04-16T03:00:46;7.87;;;7.27;;
8088;SDS011;57635;49.194;12.104;2023-04-16T03:03:14;7.30;;;6.70;;
8088;SDS011;57635;49.194;12.104;2023-04-16T03:05:43;7.10;;;6.57;;
8088;SDS011;57635;49.194;12.104;2023-04-16T03:08:11;6.93;;;6.43;;
8088;SDS011;57635;49.194;12.104;2023-04-16T03:10:39;6.93;;;6.53;;
8088;SDS011;57635;49.194;12.104;2023-04-16T03:13:07;6.70;;;6.20;;
8088;SDS011;57635;49.194;12.104;2023-04-16T03:15:35;7.07;;;6.47;;
8088;SDS011;57635;49.194;12.104;2023-04-16T03:18:02;6.80;;;6.40;;
8088;SDS011;57635;49.194;12.104;2023-04-16T03:20:30;7.03;;;6.53;;
8088;SDS011;57635;49.194;12.104;2023-04-16T03:22:59;7.27;;;6.67;;
8088;SDS011;57635;49.194;12.104;2023-04-16T03:25:27;7.20;;;6.80;;
8088;SDS011;57635;49.194;12.104;2023-04-16T03:27:54;7.30;;;6.70;;
8088;SDS011;57635;49.194;12.104;2023-04-16T03:30:22;7.27;;;6.53;;
8088;SDS011;57635;49.194;12.104;2023-04-16T03:32:50;6.60;;;6.10;;
8088;SDS011;57635;49.194;12.104;2023-04-16T03:35:18;7.07;;;6.57;;
8088;SDS011;57635;49.194;12.104;2023-04-16T03:37:51;7.67;;;7.00;;
8088;SDS011;57635;49.194;12.104;2023-04-16T03:40:21;7.43;;;6.93;;
8088;SDS011;57635;49.194;12.104;2023-04-16T03:42:49;7.00;;;6.47;;
8088;SDS011;57635;49.194;12.104;2023-04-16T03:45:16;6.40;;;6.00;;
8088;SDS011;57635;49.194;12.104;2023-04-16T03:47:44;7.17;;;6.67;;
8088;SDS011;57635;49.194;12.104;2023-04-16T03:50:13;7.07;;;6.47;;
8088;SDS011;57635;49.194;12.104;2023-04-16T03:52:41;7.43;;;6.83;;
8088;SDS011;57635;49.194;12.104;2023-04-16T03:55:10;6.67;;;6.17;;
8088;SDS011;57635;49.194;12.104;2023-04-16T03:57:39;5.83;;;5.40;;
8088;SDS011;57635;49.194;12.104;2023-04-16T04:00:06;6.60;;;6.17;;
8088;SDS011;57635;49.194;12.104;2023-04-16T04:02:35;6.13;;;5.73;;
8088;SDS011;57635;49.194;12.104;2023-04-16T04:05:03;6.70;;;6.27;;
8088;SDS011;57635;49.194;12.104;2023-04-16T04:07:31;6.37;;;5.97;;
8088;SDS011;57635;49.194;12.104;2023-04-16T04:09:58;6.63;;;6.13;;
8088;SDS011;57635;49.194;12.104;2023-04-16T04:12:26;6.70;;;6.20;;
8088;SDS011;57635;49.194;12.104;2023-04-16T04:14:55;7.37;;;6.77;;
8088;SDS011;57635;49.194;12.104;2023-04-16T04:17:23;6.67;;;6.17;;
8088;SDS011;57635;49.194;12.104;2023-04-16T04:19:51;7.00;;;6.40;;
8088;SDS011;57635;49.194;12.104;2023-04-16T04:22:26;6.73;;;6.33;;
8088;SDS011;57635;49.194;12.104;2023-04-16T04:24:54;6.67;;;6.17;;
8088;SDS011;57635;49.194;12.104;2023-04-16T04:27:22;6.40;;;5.90;;
8088;SDS011;57635;49.194;12.104;2023-04-16T04:29:50;6.03;;;5.63;;
8088;SDS011;57635;49.194;12.104;2023-04-16T04:32:19;6.27;;;5.77;;
8088;SDS011;57635;49.194;12.104;2023-04-16T04:34:47;6.33;;;5.83;;
8088;SDS011;57635;49.194;12.104;2023-04-16T04:37:17;6.80;;;6.30;;
8088;SDS011;57635;49.194;12.104;2023-04-16T04:39:48;6.80;;;6.20;;
8088;SDS011;57635;49.194;12.104;2023-04-16T04:42:16;6.30;;;5.90;;
8088;SDS011;57635;49.194;12.104;2023-04-16T04:44:44;6.53;;;6.03;;
8088;SDS011;57635;49.194;12.104;2023-04-16T04:47:12;6.40;;;6.00;;
8088;SDS011;57635;49.194;12.104;2023-04-16T04:49:42;5.93;;;5.53;;
8088;SDS011;57635;49.194;12.104;2023-04-16T04:52:10;6.33;;;5.90;;
8088;SDS011;57635;49.194;12.104;2023-04-16T04:54:37;6.03;;;5.63;;
8088;SDS011;57635;49.194;12.104;2023-04-16T04:57:06;6.23;;;5.83;;
8088;SDS011;57635;49.194;12.104;2023-04-16T04:59:34;6.00;;;5.60;;
8088;SDS011;57635;49.194;12.104;2023-04-16T05:02:02;6.17;;;5.67;;
8088;SDS011;57635;49.194;12.104;2023-04-16T05:04:30;6.47;;;5.97;;
8088;SDS011;57635;49.194;12.104;2023-04-16T05:06:59;6.07;;;5.67;;
8088;SDS011;57635;49.194;12.104;2023-04-16T05:09:27;5.80;;;5.40;;
8088;SDS011;57635;49.194;12.104;2023-04-16T05:11:54;5.57;;;5.17;;
8088;SDS011;57635;49.194;12.104;2023-04-16T05:14:22;5.40;;;5.10;;
8088;SDS011;57635;49.194;12.104;2023-04-16T05:16:50;6.20;;;5.70;;
8088;SDS011;57635;49.194;12.104;2023-04-16T05:19:19;5.60;;;5.20;;
8088;SDS011;57635;49.194;12.104;2023-04-16T05:21:47;5.60;;;5.27;;
8088;SDS011;57635;49.194;12.104;2023-04-16T05:24:16;5.50;;;5.10;;
8088;SDS011;57635;49.194;12.104;2023-04-16T05:26:43;6.03;;;5.63;;
8088;SDS011;57635;49.194;12.104;2023-04-16T05:29:11;6.93;;;6.43;;
8088;SDS011;57635;49.194;12.104;2023-04-16T05:31:39;5.90;;;5.50;;
8088;SDS011;57635;49.194;12.104;2023-04-16T05:34:07;6.23;;;5.73;;
8088;SDS011;57635;49.194;12.104;2023-04-16T05:36:34;5.37;;;5.07;;
8088;SDS011;57635;49.194;12.104;2023-04-16T05:39:02;5.80;;;5.40;;
8088;SDS011;57635;49.194;12.104;2023-04-16T05:41:31;5.90;;;5.40;;
8088;SDS011;57635;49.194;12.104;2023-04-16T05:43:59;5.63;;;5.27;;
8088;SDS011;57635;49.194;12.104;2023-04-16T05:46:27;5.40;;;5.00;;
8088;SDS011;57635;49.194;12.104;2023-04-16T05:48:54;4.67;;;4.37;;
8088;SDS011;57635;49.194;12.104;2023-04-16T05:51:22;5.37;;;5.00;;
8088;SDS011;57635;49.194;12.104;2023-04-16T05:53:51;5.07;;;4.77;;
8088;SDS011;57635;49.194;12.104;2023-04-16T05:56:19;4.70;;;4.40;;
8088;SDS011;57635;49.194;12.104;2023-04-16T05:58:48;4.67;;;4.37;;
8088;SDS011;57635;49.194;12.104;2023-04-16T06:01:16;5.07;;;4.77;;
8088;SDS011;57635;49.194;12.104;2023-04-16T06:03:44;4.90;;;4.50;;
8088;SDS011;57635;49.194;12.104;2023-04-16T06:06:12;4.10;;;3.90;;
8088;SDS011;57635;49.194;12.104;2023-04-16T06:08:40;4.57;;;4.27;;
8088;SDS011;57635;49.194;12.104;2023-04-16T06:11:07;4.80;;;4.50;;
8088;SDS011;57635;49.194;12.104;2023-04-16T06:13:35;4.67;;;4.37;;
8088;SDS011;57635;49.194;12.104;2023-04-16T06:16:04;4.97;;;4.60;;
8088;SDS011;57635;49.194;12.104;2023-04-16T06:18:32;5.20;;;4.80;;
8088;SDS011;57635;49.194;12.104;2023-04-16T06:21:00;4.37;;;4.07;;
8088;SDS011;57635;49.194;12.104;2023-04-16T06:23:29;4.43;;;4.13;;
8088;SDS011;57635;49.194;12.104;2023-04-16T06:25:57;4.87;;;4.57;;
8088;SDS011;57635;49.194;12.104;2023-04-16T06:28:24;4.17;;;3.97;;
8088;SDS011;57635;49.194;12.104;2023-04-16T06:30:52;4.00;;;3.80;;
8088;SDS011;57635;49.194;12.104;2023-04-16T06:33:21;4.67;;;4.37;;
8088;SDS011;57635;49.194;12.104;2023-04-16T06:35:49;4.17;;;3.97;;
8088;SDS011;57635;49.194;12.104;2023-04-16T06:38:17;4.93;;;4.63;;
8088;SDS011;57635;49.194;12.104;2023-04-16T06:40:45;4.87;;;4.57;;
8088;SDS011;57635;49.194;12.104;2023-04-16T06:43:12;4.20;;;3.97;;
8088;SDS011;57635;49.194;12.104;2023-04-16T06:45:42;4.90;;;4.60;;
8088;SDS011;57635;49.194;12.104;2023-04-16T06:48:10;5.53;;;5.13;;
8088;SDS011;57635;49.194;12.104;2023-04-16T06:50:39;5.20;;;4.90;;
8088;SDS011;57635;49.194;12.104;2023-04-16T06:53:07;6.13;;;5.63;;
8088;SDS011;57635;49.194;12.104;2023-04-16T06:55:36;5.00;;;4.70;;
8088;SDS011;57635;49.194;12.104;2023-04-16T06:58:03;5.63;;;5.23;;
8088;SDS011;57635;49.194;12.104;2023-04-16T07:00:32;5.70;;;5.30;;
8088;SDS011;57635;49.194;12.104;2023-04-16T07:02:59;6.00;;;5.57;;
8088;SDS011;57635;49.194;12.104;2023-04-16T07:05:28;6.30;;;5.90;;
8088;SDS011;57635;49.194;12.104;2023-04-16T07:07:58;6.83;;;6.33;;
8088;SDS011;57635;49.194;12.104;2023-04-16T07:10:26;6.27;;;5.83;;
8088;SDS011;57635;49.194;12.104;2023-04-16T07:12:53;6.13;;;5.72;;
8088;SDS011;57635;49.194;12.104;2023-04-16T07:15:21;5.80;;;5.40;;
8088;SDS011;57635;49.194;12.104;2023-04-16T07:17:49;6.43;;;5.93;;
8088;SDS011;57635;49.194;12.104;2023-04-16T07:20:17;5.63;;;5.23;;
8088;SDS011;57635;49.194;12.104;2023-04-16T07:22:44;5.90;;;5.50;;
8088;SDS011;57635;49.194;12.104;2023-04-16T07:25:14;6.27;;;5.87;;
8088;SDS011;57635;49.194;12.104;2023-04-16T07:27:41;5.30;;;4.90;;
8088;SDS011;57635;49.194;12.104;2023-04-16T07:30:09;5.90;;;5.50;;
8088;SDS011;57635;49.194;12.104;2023-04-16T07:32:37;7.00;;;6.50;;
8088;SDS011;57635;49.194;12.104;2023-04-16T07:35:05;5.47;;;5.07;;
8088;SDS011;57635;49.194;12.104;2023-04-16T07:37:34;6.10;;;5.60;;
8088;SDS011;57635;49.194;12.104;2023-04-16T07:40:02;4.53;;;4.23;;
8088;SDS011;57635;49.194;12.104;2023-04-16T07:42:31;4.50;;;4.20;;
8088;SDS011;57635;49.194;12.104;2023-04-16T07:44:59;4.70;;;4.40;;
8088;SDS011;57635;49.194;12.104;2023-04-16T07:47:33;4.80;;;4.50;;
8088;SDS011;57635;49.194;12.104;2023-04-16T07:50:01;7.67;;;7.07;;
8088;SDS011;57635;49.194;12.104;2023-04-16T07:52:29;9.70;;;8.90;;
8088;SDS011;57635;49.194;12.104;2023-04-16T07:54:57;7.10;;;6.50;;
8088;SDS011;57635;49.194;12.104;2023-04-16T07:57:25;8.33;;;7.63;;
8088;SDS011;57635;49.194;12.104;2023-04-16T07:59:54;8.87;;;8.17;;
8088;SDS011;57635;49.194;12.104;2023-04-16T08:02:21;8.17;;;7.53;;
8088;SDS011;57635;49.194;12.104;2023-04-16T08:04:49;7.00;;;6.50;;
8088;SDS011;57635;49.194;12.104;2023-04-16T08:07:17;7.13;;;6.55;;
8088;SDS011;57635;49.194;12.104;2023-04-16T08:09:48;7.23;;;6.73;;
8088;SDS011;57635;49.194;12.104;2023-04-16T08:12:17;7.77;;;7.13;;
8088;SDS011;57635;49.194;12.104;2023-04-16T08:14:45;8.30;;;7.67;;
8088;SDS011;57635;49.194;12.104;2023-04-16T08:17:14;7.23;;;6.73;;
8088;SDS011;57635;49.194;12.104;2023-04-16T08:19:43;6.67;;;6.07;;
8088;SDS011;57635;49.194;12.104;2023-04-16T08:22:11;6.70;;;6.17;;
8088;SDS011;57635;49.194;12.104;2023-04-16T08:24:39;6.40;;;5.90;;
8088;SDS011;57635;49.194;12.104;2023-04-16T08:27:07;6.47;;;5.97;;
8088;SDS011;57635;49.194;12.104;2023-04-16T08:29:44;6.40;;;5.80;;
8088;SDS011;57635;49.194;12.104;2023-04-16T08:32:11;7.60;;;7.00;;
8088;SDS011;57635;49.194;12.104;2023-04-16T08:34:40;5.40;;;5.00;;
8088;SDS011;57635;49.194;12.104;2023-04-16T08:37:08;5.23;;;4.83;;
8088;SDS011;57635;49.194;12.104;2023-04-16T08:39:36;5.47;;;5.07;;
8088;SDS011;57635;49.194;12.104;2023-04-16T08:42:04;5.03;;;4.63;;
8088;SDS011;57635;49.194;12.104;2023-04-16T08:44:33;4.87;;;4.27;;
8088;SDS011;57635;49.194;12.104;2023-04-16T08:47:01;4.47;;;4.27;;
8088;SDS011;57635;49.194;12.104;2023-04-16T08:49:29;4.70;;;4.40;;
8088;SDS011;57635;49.194;12.104;2023-04-16T08:52:00;4.23;;;4.00;;
8088;SDS011;57635;49.194;12.104;2023-04-16T08:54:33;4.63;;;4.43;;
8088;SDS011;57635;49.194;12.104;2023-04-16T08:57:04;4.00;;;3.80;;
8088;SDS011;57635;49.194;12.104;2023-04-16T08:59:33;4.17;;;3.97;;
8088;SDS011;57635;49.194;12.104;2023-04-16T09:02:01;3.80;;;3.60;;
8088;SDS011;57635;49.194;12.104;2023-04-16T09:04:29;3.47;;;3.27;;
8088;SDS011;57635;49.194;12.104;2023-04-16T09:06:58;4.17;;;3.87;;
8088;SDS011;57635;49.194;12.104;2023-04-16T09:09:28;4.80;;;4.50;;
8088;SDS011;57635;49.194;12.104;2023-04-16T09:11:59;4.93;;;4.53;;
8088;SDS011;57635;49.194;12.104;2023-04-16T09:14:27;5.27;;;4.97;;
8088;SDS011;57635;49.194;12.104;2023-04-16T09:16:55;4.80;;;4.40;;
8088;SDS011;57635;49.194;12.104;2023-04-16T09:19:26;5.30;;;4.90;;
8088;SDS011;57635;49.194;12.104;2023-04-16T09:21:54;4.83;;;4.53;;
8088;SDS011;57635;49.194;12.104;2023-04-16T09:24:23;4.83;;;4.43;;
8088;SDS011;57635;49.194;12.104;2023-04-16T09:26:52;4.60;;;4.30;;
8088;SDS011;57635;49.194;12.104;2023-04-16T09:29:33;3.93;;;3.73;;
8088;SDS011;57635;49.194;12.104;2023-04-16T09:32:03;4.70;;;4.30;;
8088;SDS011;57635;49.194;12.104;2023-04-16T09:34:31;4.90;;;4.50;;
8088;SDS011;57635;49.194;12.104;2023-04-16T09:39:53;5.13;;;4.73;;
8088;SDS011;57635;49.194;12.104;2023-04-16T09:42:23;5.13;;;4.73;;
8088;SDS011;57635;49.194;12.104;2023-04-16T09:44:52;4.47;;;4.17;;
8088;SDS011;57635;49.194;12.104;2023-04-16T09:47:24;5.40;;;5.00;;
8088;SDS011;57635;49.194;12.104;2023-04-16T09:49:52;5.60;;;5.20;;
8088;SDS011;57635;49.194;12.104;2023-04-16T09:52:25;5.10;;;4.70;;
8088;SDS011;57635;49.194;12.104;2023-04-16T09:54:54;4.37;;;4.13;;
8088;SDS011;57635;49.194;12.104;2023-04-16T09:57:22;4.40;;;4.10;;
8088;SDS011;57635;49.194;12.104;2023-04-16T09:59:51;4.83;;;4.53;;
8088;SDS011;57635;49.194;12.104;2023-04-16T10:02:19;4.80;;;4.47;;
8088;SDS011;57635;49.194;12.104;2023-04-16T10:04:48;4.80;;;4.50;;
8088;SDS011;57635;49.194;12.104;2023-04-16T10:07:17;3.90;;;3.70;;
8088;SDS011;57635;49.194;12.104;2023-04-16T10:09:46;4.43;;;3.73;;
8088;SDS011;57635;49.194;12.104;2023-04-16T10:12:15;2.83;;;2.70;;
8088;SDS011;57635;49.194;12.104;2023-04-16T10:14:43;3.10;;;2.90;;
8088;SDS011;57635;49.194;12.104;2023-04-16T10:17:12;3.23;;;3.03;;
8088;SDS011;57635;49.194;12.104;2023-04-16T10:19:42;4.50;;;4.20;;
8088;SDS011;57635;49.194;12.104;2023-04-16T10:22:14;4.20;;;4.00;;
8088;SDS011;57635;49.194;12.104;2023-04-16T10:24:42;4.33;;;4.13;;
8088;SDS011;57635;49.194;12.104;2023-04-16T10:27:10;4.43;;;4.13;;
8088;SDS011;57635;49.194;12.104;2023-04-16T10:29:39;4.57;;;4.27;;
8088;SDS011;57635;49.194;12.104;2023-04-16T10:32:07;4.00;;;3.80;;
8088;SDS011;57635;49.194;12.104;2023-04-16T10:34:35;4.07;;;3.87;;
8088;SDS011;57635;49.194;12.104;2023-04-16T10:37:09;4.70;;;4.43;;
8088;SDS011;57635;49.194;12.104;2023-04-16T10:39:37;4.03;;;3.83;;
8088;SDS011;57635;49.194;12.104;2023-04-16T10:42:06;4.00;;;3.80;;
8088;SDS011;57635;49.194;12.104;2023-04-16T10:44:34;4.30;;;4.00;;
8088;SDS011;57635;49.194;12.104;2023-04-16T10:47:04;3.97;;;3.73;;
8088;SDS011;57635;49.194;12.104;2023-04-16T10:49:36;4.07;;;3.83;;
8088;SDS011;57635;49.194;12.104;2023-04-16T10:52:07;4.30;;;4.00;;
8088;SDS011;57635;49.194;12.104;2023-04-16T10:54:37;4.00;;;3.80;;
8088;SDS011;57635;49.194;12.104;2023-04-16T10:57:05;4.10;;;3.90;;
8088;SDS011;57635;49.194;12.104;2023-04-16T10:59:34;3.70;;;3.50;;
8088;SDS011;57635;49.194;12.104;2023-04-16T11:02:06;3.47;;;3.27;;
8088;SDS011;57635;49.194;12.104;2023-04-16T11:04:36;3.20;;;3.10;;
8088;SDS011;57635;49.194;12.104;2023-04-16T11:07:05;3.93;;;3.73;;
8088;SDS011;57635;49.194;12.104;2023-04-16T11:09:45;3.00;;;2.90;;
8088;SDS011;57635;49.194;12.104;2023-04-16T11:12:25;3.53;;;3.33;;
8088;SDS011;57635;49.194;12.104;2023-04-16T11:14:57;3.37;;;3.20;;
8088;SDS011;57635;49.194;12.104;2023-04-16T11:17:29;3.03;;;2.93;;
8088;SDS011;57635;49.194;12.104;2023-04-16T11:19:58;3.70;;;3.50;;
8088;SDS011;57635;49.194;12.104;2023-04-16T11:22:26;3.60;;;3.40;;
8088;SDS011;57635;49.194;12.104;2023-04-16T11:24:54;3.47;;;3.27;;
8088;SDS011;57635;49.194;12.104;2023-04-16T11:27:22;3.30;;;3.10;;
8088;SDS011;57635;49.194;12.104;2023-04-16T11:29:57;3.30;;;3.10;;
8088;SDS011;57635;49.194;12.104;2023-04-16T11:32:26;3.77;;;3.57;;
8088;SDS011;57635;49.194;12.104;2023-04-16T11:34:55;3.70;;;3.50;;
8088;SDS011;57635;49.194;12.104;2023-04-16T11:37:30;3.43;;;3.10;;
8088;SDS011;57635;49.194;12.104;2023-04-16T11:40:09;3.10;;;3.00;;
8088;SDS011;57635;49.194;12.104;2023-04-16T11:42:38;3.83;;;3.63;;
8088;SDS011;57635;49.194;12.104;2023-04-16T11:45:07;3.60;;;3.40;;
8088;SDS011;57635;49.194;12.104;2023-04-16T11:47:42;3.87;;;3.57;;
8088;SDS011;57635;49.194;12.104;2023-04-16T11:50:15;3.67;;;3.47;;
8088;SDS011;57635;49.194;12.104;2023-04-16T11:52:46;3.43;;;3.23;;
8088;SDS011;57635;49.194;12.104;2023-04-16T11:55:20;4.20;;;3.90;;
8088;SDS011;57635;49.194;12.104;2023-04-16T11:57:49;5.23;;;4.80;;
8088;SDS011;57635;49.194;12.104;2023-04-16T12:00:17;4.37;;;4.07;;
8088;SDS011;57635;49.194;12.104;2023-04-16T12:02:51;4.00;;;3.80;;
8088;SDS011;57635;49.194;12.104;2023-04-16T12:05:26;3.80;;;3.60;;
8088;SDS011;57635;49.194;12.104;2023-04-16T12:08:05;3.87;;;3.67;;
8088;SDS011;57635;49.194;12.104;2023-04-16T12:10:51;4.53;;;4.23;;
8088;SDS011;57635;49.194;12.104;2023-04-16T12:13:20;4.13;;;3.83;;
8088;SDS011;57635;49.194;12.104;2023-04-16T12:15:48;5.10;;;4.70;;
8088;SDS011;57635;49.194;12.104;2023-04-16T12:18:19;4.40;;;4.00;;
8088;SDS011;57635;49.194;12.104;2023-04-16T12:20:48;4.30;;;4.00;;
8088;SDS011;57635;49.194;12.104;2023-04-16T12:23:23;4.33;;;4.03;;
8088;SDS011;57635;49.194;12.104;2023-04-16T12:25:52;5.57;;;5.17;;
8088;SDS011;57635;49.194;12.104;2023-04-16T12:28:26;4.10;;;3.90;;
8088;SDS011;57635;49.194;12.104;2023-04-16T12:30:55;4.30;;;3.90;;
8088;SDS011;57635;49.194;12.104;2023-04-16T12:33:24;4.40;;;4.00;;
8088;SDS011;57635;49.194;12.104;2023-04-16T12:35:52;4.10;;;3.80;;
8088;SDS011;57635;49.194;12.104;2023-04-16T12:38:20;3.90;;;3.70;;
8088;SDS011;57635;49.194;12.104;2023-04-16T12:40:49;4.50;;;4.20;;
8088;SDS011;57635;49.194;12.104;2023-04-16T12:43:17;4.57;;;4.27;;
8088;SDS011;57635;49.194;12.104;2023-04-16T12:45:47;4.33;;;4.03;;
8088;SDS011;57635;49.194;12.104;2023-04-16T12:48:14;3.93;;;3.70;;
8088;SDS011;57635;49.194;12.104;2023-04-16T12:50:43;4.17;;;3.97;;
8088;SDS011;57635;49.194;12.104;2023-04-16T12:53:11;4.30;;;4.00;;
8088;SDS011;57635;49.194;12.104;2023-04-16T12:55:39;3.60;;;3.40;;
8088;SDS011;57635;49.194;12.104;2023-04-16T12:58:07;4.30;;;4.10;;
8088;SDS011;57635;49.194;12.104;2023-04-16T13:00:37;3.77;;;3.57;;
8088;SDS011;57635;49.194;12.104;2023-04-16T13:03:06;3.80;;;3.50;;
8088;SDS011;57635;49.194;12.104;2023-04-16T13:05:34;4.30;;;4.07;;
8088;SDS011;57635;49.194;12.104;2023-04-16T13:08:03;3.90;;;3.70;;
8088;SDS011;57635;49.194;12.104;2023-04-16T13:10:31;3.50;;;3.27;;
8088;SDS011;57635;49.194;12.104;2023-04-16T13:12:58;3.00;;;2.90;;
8088;SDS011;57635;49.194;12.104;2023-04-16T13:15:26;3.27;;;3.07;;
8088;SDS011;57635;49.194;12.104;2023-04-16T13:17:54;2.73;;;2.63;;
8088;SDS011;57635;49.194;12.104;2023-04-16T13:20:21;3.10;;;2.87;;
8088;SDS011;57635;49.194;12.104;2023-04-16T13:22:49;2.87;;;2.77;;
8088;SDS011;57635;49.194;12.104;2023-04-16T13:25:18;2.40;;;2.30;;
8088;SDS011;57635;49.194;12.104;2023-04-16T13:27:46;2.70;;;2.53;;
8088;SDS011;57635;49.194;12.104;2023-04-16T13:30:14;2.70;;;2.50;;
8088;SDS011;57635;49.194;12.104;2023-04-16T13:32:42;3.00;;;2.80;;
8088;SDS011;57635;49.194;12.104;2023-04-16T13:35:10;2.20;;;2.10;;
8088;SDS011;57635;49.194;12.104;2023-04-16T13:37:37;2.23;;;2.13;;
8088;SDS011;57635;49.194;12.104;2023-04-16T13:40:06;2.60;;;2.50;;
8088;SDS011;57635;49.194;12.104;2023-04-16T13:42:38;2.80;;;2.70;;
8088;SDS011;57635;49.194;12.104;2023-04-16T13:45:06;2.67;;;2.57;;
8088;SDS011;57635;49.194;12.104;2023-04-16T13:47:35;3.40;;;3.10;;
8088;SDS011;57635;49.194;12.104;2023-04-16T13:50:03;2.90;;;2.80;;
8088;SDS011;57635;49.194;12.104;2023-04-16T13:52:31;2.53;;;2.43;;
8088;SDS011;57635;49.194;12.104;2023-04-16T13:54:59;1.90;;;1.80;;
8088;SDS011;57635;49.194;12.104;2023-04-16T13:57:28;1.80;;;1.70;;
8088;SDS011;57635;49.194;12.104;2023-04-16T13:59:57;3.70;;;2.30;;
8088;SDS011;57635;49.194;12.104;2023-04-16T14:02:25;2.27;;;2.17;;
8088;SDS011;57635;49.194;12.104;2023-04-16T14:04:53;2.27;;;2.17;;
8088;SDS011;57635;49.194;12.104;2023-04-16T14:07:21;2.60;;;2.40;;
8088;SDS011;57635;49.194;12.104;2023-04-16T14:09:52;2.10;;;2.00;;
8088;SDS011;57635;49.194;12.104;2023-04-16T14:12:20;2.07;;;1.97;;
8088;SDS011;57635;49.194;12.104;2023-04-16T14:14:47;2.30;;;2.20;;
8088;SDS011;57635;49.194;12.104;2023-04-16T14:17:16;2.67;;;2.43;;
8088;SDS011;57635;49.194;12.104;2023-04-16T14:19:44;3.40;;;3.20;;
8088;SDS011;57635;49.194;12.104;2023-04-16T14:22:12;2.80;;;2.43;;
8088;SDS011;57635;49.194;12.104;2023-04-16T14:24:42;3.00;;;2.80;;
8088;SDS011;57635;49.194;12.104;2023-04-16T14:27:10;2.33;;;2.17;;
8088;SDS011;57635;49.194;12.104;2023-04-16T14:29:38;1.97;;;1.97;;
8088;SDS011;57635;49.194;12.104;2023-04-16T14:32:06;2.23;;;2.03;;
8088;SDS011;57635;49.194;12.104;2023-04-16T14:34:35;2.63;;;2.50;;
8088;SDS011;57635;49.194;12.104;2023-04-16T14:37:03;2.23;;;1.97;;
8088;SDS011;57635;49.194;12.104;2023-04-16T14:39:31;1.63;;;1.60;;
8088;SDS011;57635;49.194;12.104;2023-04-16T14:42:00;1.47;;;1.47;;
8088;SDS011;57635;49.194;12.104;2023-04-16T14:44:36;2.60;;;2.50;;
8088;SDS011;57635;49.194;12.104;2023-04-16T14:47:04;3.10;;;2.93;;
8088;SDS011;57635;49.194;12.104;2023-04-16T14:49:33;3.27;;;2.97;;
8088;SDS011;57635;49.194;12.104;2023-04-16T14:52:03;4.10;;;3.73;;
8088;SDS011;57635;49.194;12.104;2023-04-16T14:54:32;4.00;;;3.70;;
8088;SDS011;57635;49.194;12.104;2023-04-16T14:57:00;5.57;;;5.17;;
8088;SDS011;57635;49.194;12.104;2023-04-16T14:59:28;4.47;;;4.17;;